createdAt,value
2022-08-17T00:02:22.432Z,2.70
2022-08-17T00:06:32.081Z,2.58
2022-08-17T00:10:36.066Z,2.22
2022-08-17T00:14:40.042Z,2.10
2022-08-17T00:19:01.034Z,2.42
2022-08-17T00:23:11.398Z,2.38
2022-08-17T00:27:14.593Z,2.28
2022-08-17T00:31:18.027Z,2.33
2022-08-17T00:35:23.722Z,2.42
2022-08-17T00:39:28.320Z,2.38
2022-08-17T00:43:35.842Z,2.15
2022-08-17T00:47:39.024Z,2.38
2022-08-17T00:51:45.380Z,2.25
2022-08-17T00:55:50.285Z,2.63
2022-08-17T01:00:02.115Z,2.60
2022-08-17T01:04:07.505Z,2.47
2022-08-17T01:08:13.671Z,3.00
2022-08-17T01:12:19.140Z,2.53
2022-08-17T01:16:25.665Z,2.92
2022-08-17T01:20:29.600Z,2.38
2022-08-17T01:24:35.197Z,2.45
2022-08-17T01:28:53.985Z,2.65
2022-08-17T01:32:59.193Z,2.70
2022-08-17T01:37:02.875Z,2.45
2022-08-17T01:41:11.345Z,2.33
2022-08-17T01:45:17.850Z,3.03
2022-08-17T01:49:21.177Z,2.55
2022-08-17T01:53:27.420Z,2.58
2022-08-17T01:57:32.034Z,2.55
2022-08-17T02:01:36.176Z,2.60
2022-08-17T02:05:39.826Z,2.80
2022-08-17T02:09:44.112Z,2.50
2022-08-17T02:14:02.530Z,2.90
2022-08-17T02:18:07.787Z,2.55
2022-08-17T02:22:11.887Z,2.30
2022-08-17T02:26:25.818Z,2.70
2022-08-17T02:31:01.081Z,2.45
2022-08-17T02:34:54.690Z,2.65
2022-08-17T02:38:58.660Z,2.97
2022-08-17T02:43:02.183Z,2.88
2022-08-17T02:47:08.871Z,2.58
2022-08-17T02:51:12.023Z,2.70
2022-08-17T02:55:18.885Z,2.80
2022-08-17T02:59:22.552Z,2.80
2022-08-17T03:03:27.056Z,2.80
2022-08-17T03:07:31.831Z,2.50
2022-08-17T03:11:35.428Z,2.60
2022-08-17T03:15:40.669Z,3.05
2022-08-17T03:19:48.594Z,2.95
2022-08-17T03:23:54.479Z,2.78
2022-08-17T03:27:58.634Z,2.50
2022-08-17T03:32:10.665Z,2.80
2022-08-17T03:36:15.456Z,2.83
2022-08-17T03:40:18.713Z,2.80
2022-08-17T03:44:42.008Z,3.00
2022-08-17T03:49:02.496Z,2.50
2022-08-17T03:53:27.764Z,2.80
2022-08-17T03:57:32.186Z,2.97
2022-08-17T04:01:35.825Z,2.88
2022-08-17T04:05:39.889Z,2.67
2022-08-17T04:09:44.976Z,3.00
2022-08-17T04:13:48.276Z,2.97
2022-08-17T04:17:51.382Z,2.85
2022-08-17T04:21:54.694Z,3.08
2022-08-17T04:25:59.697Z,3.00
2022-08-17T04:30:03.309Z,2.97
2022-08-17T04:34:06.717Z,2.50
2022-08-17T04:38:13.305Z,2.60
2022-08-17T04:42:18.107Z,2.92
2022-08-17T04:46:22.692Z,2.90
2022-08-17T04:50:26.132Z,2.80
2022-08-17T04:54:29.373Z,2.92
2022-08-17T04:58:33.958Z,3.13
2022-08-17T05:02:49.930Z,2.42
2022-08-17T05:06:54.568Z,2.53
2022-08-17T05:10:57.903Z,2.35
2022-08-17T05:15:02.601Z,2.38
2022-08-17T05:19:05.749Z,2.15
2022-08-17T05:23:12.618Z,2.20
2022-08-17T05:27:19.089Z,2.15
2022-08-17T05:31:23.818Z,1.95
2022-08-17T05:35:28.598Z,2.20
2022-08-17T05:39:32.510Z,2.22
2022-08-17T05:43:37.815Z,2.20
2022-08-17T05:47:45.581Z,2.53
2022-08-17T05:52:04.538Z,1.98
2022-08-17T05:56:30.094Z,2.30
2022-08-17T06:00:43.050Z,2.28
2022-08-17T06:05:05.600Z,2.47
2022-08-17T06:09:33.577Z,1.90
2022-08-17T06:13:55.229Z,2.42
2022-08-17T06:18:02.473Z,2.08
2022-08-17T06:22:09.480Z,2.28
2022-08-17T06:26:17.296Z,2.20
2022-08-17T06:30:24.725Z,2.28
2022-08-17T06:34:39.375Z,2.10
2022-08-17T06:38:53.734Z,1.80
2022-08-17T06:43:12.668Z,2.00
2022-08-17T06:47:28.347Z,2.20
2022-08-17T06:51:39.635Z,2.33
2022-08-17T06:55:48.288Z,2.17
2022-08-17T06:59:56.892Z,2.00
2022-08-17T07:04:11.536Z,2.20
2022-08-17T07:08:20.910Z,2.00
2022-08-17T07:12:29.687Z,2.97
2022-08-17T07:16:39.519Z,2.28
2022-08-17T07:20:49.075Z,2.45
2022-08-17T07:24:57.292Z,2.05
2022-08-17T07:29:03.090Z,2.55
2022-08-17T07:33:12.543Z,2.33
2022-08-17T07:37:20.610Z,2.40
2022-08-17T07:41:23.846Z,2.80
2022-08-17T07:45:46.154Z,2.60
2022-08-17T07:49:51.846Z,2.45
2022-08-17T07:54:12.901Z,2.38
2022-08-17T07:58:19.275Z,2.45
2022-08-17T08:02:31.961Z,2.30
2022-08-17T08:06:49.315Z,2.47
2022-08-17T08:11:02.273Z,2.50
2022-08-17T08:15:15.079Z,2.58
2022-08-17T08:19:21.186Z,2.53
2022-08-17T08:23:36.318Z,2.80
2022-08-17T08:27:50.676Z,2.53
2022-08-17T08:32:03.814Z,2.53
2022-08-17T08:37:14.145Z,2.45
2022-08-17T08:40:57.585Z,2.72
2022-08-17T08:45:09.515Z,2.50
2022-08-17T08:50:03.474Z,2.90
2022-08-17T08:54:26.611Z,3.03
2022-08-17T08:58:42.631Z,2.33
2022-08-17T09:03:08.470Z,2.72
2022-08-17T09:07:20.618Z,2.78
2022-08-17T09:11:31.934Z,2.58
2022-08-17T09:15:42.225Z,2.92
2022-08-17T09:19:50.353Z,2.70
2022-08-17T09:24:04.911Z,2.83
2022-08-17T09:28:19.155Z,2.72
2022-08-17T09:32:29.553Z,2.67
2022-08-17T09:36:39.606Z,2.67
2022-08-17T09:40:51.676Z,2.65
2022-08-17T09:45:11.001Z,2.58
2022-08-17T09:49:30.970Z,2.42
2022-08-17T09:53:36.828Z,2.38
2022-08-17T09:57:55.535Z,2.20
2022-08-17T10:02:14.522Z,2.30
2022-08-17T10:06:25.986Z,2.17
2022-08-17T10:10:32.922Z,2.20
2022-08-17T10:14:44.716Z,2.08
2022-08-17T10:19:14.807Z,2.10
2022-08-17T10:23:40.423Z,2.10
2022-08-17T10:27:49.122Z,2.15
2022-08-17T10:31:56.823Z,1.85
2022-08-17T10:36:10.873Z,1.85
2022-08-17T10:40:26.830Z,1.90
2022-08-17T10:44:42.627Z,1.85
2022-08-17T10:48:47.390Z,1.98
2022-08-17T10:52:51.957Z,2.10
2022-08-17T10:56:57.209Z,1.88
2022-08-17T11:01:02.315Z,1.92
2022-08-17T11:05:43.955Z,1.95
2022-08-17T11:10:06.831Z,2.03
2022-08-17T11:14:23.966Z,2.00
2022-08-17T11:18:47.977Z,2.00
2022-08-17T11:23:25.501Z,2.05
2022-08-17T11:27:32.408Z,2.00
2022-08-17T11:31:40.057Z,1.80
2022-08-17T11:35:52.425Z,1.70
2022-08-17T11:40:18.638Z,1.80
2022-08-17T11:44:46.767Z,1.77
2022-08-17T11:49:19.901Z,1.90
2022-08-17T11:54:31.582Z,1.85
2022-08-17T11:58:39.433Z,2.08
2022-08-17T12:02:48.824Z,1.90
2022-08-17T12:06:57.007Z,1.73
2022-08-17T12:11:05.791Z,1.83
2022-08-17T12:15:18.361Z,1.77
2022-08-17T12:19:27.525Z,1.75
2022-08-17T12:23:40.539Z,2.28
2022-08-17T12:28:06.070Z,1.95
2022-08-17T12:32:17.700Z,1.90
2022-08-17T12:36:25.840Z,1.70
2022-08-17T12:40:31.568Z,1.70
2022-08-17T12:44:46.126Z,1.77
2022-08-17T12:48:58.926Z,1.90
2022-08-17T12:53:06.439Z,2.08
2022-08-17T12:57:15.488Z,1.90
2022-08-17T13:01:19.285Z,2.05
2022-08-17T13:05:27.662Z,2.20
2022-08-17T13:09:35.899Z,1.88
2022-08-17T13:13:46.657Z,1.90
2022-08-17T13:17:59.379Z,2.20
2022-08-17T13:22:04.179Z,1.90
2022-08-17T13:26:17.081Z,2.20
2022-08-17T13:30:24.087Z,1.80
2022-08-17T13:35:05.887Z,1.73
2022-08-17T13:39:09.807Z,2.33
2022-08-17T13:43:44.630Z,1.90
2022-08-17T13:47:47.726Z,1.70
2022-08-17T13:51:51.444Z,2.10
2022-08-17T13:55:57.858Z,1.98
2022-08-17T14:00:12.921Z,1.92
2022-08-17T14:04:20.857Z,2.28
2022-08-17T14:08:26.418Z,1.67
2022-08-17T14:12:33.232Z,1.65
2022-08-17T14:16:41.684Z,1.95
2022-08-17T14:20:45.641Z,1.90
2022-08-17T14:24:48.733Z,2.10
2022-08-17T14:28:54.729Z,2.17
2022-08-17T14:33:02.174Z,1.80
2022-08-17T14:37:05.574Z,2.08
2022-08-17T14:41:08.826Z,2.05
2022-08-17T14:45:29.706Z,2.10
2022-08-17T14:49:37.770Z,1.70
2022-08-17T14:53:42.694Z,2.30
2022-08-17T14:57:46.310Z,1.80
2022-08-17T15:01:49.566Z,2.10
2022-08-17T15:05:54.245Z,1.92
2022-08-17T15:09:58.685Z,1.98
2022-08-17T15:14:03.550Z,2.20
2022-08-17T15:18:08.347Z,1.80
2022-08-17T15:22:23.775Z,2.10
2022-08-17T15:26:27.094Z,1.70
2022-08-17T15:30:31.490Z,1.70
2022-08-17T15:34:34.723Z,1.85
2022-08-17T15:38:40.386Z,2.28
2022-08-17T15:42:43.495Z,2.03
2022-08-17T15:46:46.712Z,2.10
2022-08-17T15:50:53.225Z,2.03
2022-08-17T15:55:00.515Z,1.70
2022-08-17T15:59:03.590Z,2.13
2022-08-17T16:03:45.923Z,1.88
2022-08-17T16:07:30.306Z,2.33
2022-08-17T16:11:34.730Z,2.05
2022-08-17T16:15:38.168Z,1.75
2022-08-17T16:19:42.148Z,2.00
2022-08-17T16:23:45.322Z,1.70
2022-08-17T16:27:53.519Z,1.88
2022-08-17T16:31:57.069Z,2.00
2022-08-17T16:36:01.084Z,1.92
2022-08-17T16:40:05.966Z,1.90
2022-08-17T16:44:10.415Z,2.10
2022-08-17T16:48:18.586Z,1.88
2022-08-17T16:52:32.451Z,1.88
2022-08-17T16:56:37.207Z,1.80
2022-08-17T17:00:43.002Z,1.70
2022-08-17T17:04:52.948Z,2.22
2022-08-17T17:08:59.853Z,2.10
2022-08-17T17:13:04.602Z,1.70
2022-08-17T17:17:14.592Z,1.85
2022-08-17T17:21:25.540Z,2.28
2022-08-17T17:25:34.147Z,2.17
2022-08-17T17:29:51.215Z,2.10
2022-08-17T17:34:00.553Z,2.17
2022-08-17T17:38:11.010Z,2.00
2022-08-17T17:42:20.152Z,2.22
2022-08-17T17:46:29.063Z,2.00
2022-08-17T17:50:43.979Z,1.98
2022-08-17T17:55:05.386Z,2.35
2022-08-17T17:59:16.037Z,2.30
2022-08-17T18:03:30.450Z,2.13
2022-08-17T18:07:43.482Z,2.33
2022-08-17T18:11:59.090Z,2.80
2022-08-17T18:16:04.930Z,2.80
2022-08-17T18:20:08.526Z,2.78
2022-08-17T18:24:14.038Z,2.55
2022-08-17T18:28:25.179Z,2.50
2022-08-17T18:32:35.539Z,2.67
2022-08-17T18:36:39.791Z,4.13
2022-08-17T18:40:44.475Z,3.45
2022-08-17T18:44:51.684Z,2.90
2022-08-17T18:49:00.462Z,2.60
2022-08-17T18:53:21.443Z,3.35
2022-08-17T18:57:35.444Z,3.17
2022-08-17T19:01:52.606Z,2.38
2022-08-17T19:06:16.282Z,2.65
2022-08-17T19:10:25.081Z,2.70
2022-08-17T19:14:31.250Z,2.53
2022-08-17T19:18:38.614Z,2.65
2022-08-17T19:22:58.510Z,2.70
2022-08-17T19:27:07.806Z,3.83
2022-08-17T19:31:23.006Z,3.00
2022-08-17T19:35:33.802Z,3.00
2022-08-17T19:39:46.659Z,2.50
2022-08-17T19:44:06.930Z,2.30
2022-08-17T19:48:22.798Z,2.30
2022-08-17T19:52:50.367Z,2.40
2022-08-17T19:57:01.761Z,2.20
2022-08-17T20:01:08.303Z,2.55
2022-08-17T20:05:17.737Z,2.97
2022-08-17T20:09:35.098Z,2.45
2022-08-17T20:13:50.169Z,2.83
2022-08-17T20:17:53.789Z,2.45
2022-08-17T20:22:04.840Z,2.60
2022-08-17T20:26:19.802Z,2.60
2022-08-17T20:30:37.382Z,2.20
2022-08-17T20:34:40.723Z,2.30
2022-08-17T20:38:48.599Z,2.63
2022-08-17T20:42:51.856Z,2.65
2022-08-17T20:47:05.016Z,2.47
2022-08-17T20:51:18.723Z,2.50
2022-08-17T20:55:57.330Z,2.25
2022-08-17T21:00:13.822Z,2.90
2022-08-17T21:04:47.447Z,2.50
2022-08-17T21:08:54.982Z,2.78
2022-08-17T21:13:05.521Z,2.75
2022-08-17T21:17:26.453Z,2.72
2022-08-17T21:21:42.202Z,2.53
2022-08-17T21:26:14.757Z,2.30
2022-08-17T21:30:48.092Z,2.53
2022-08-17T21:35:26.231Z,2.85
2022-08-17T21:39:34.322Z,3.00
2022-08-17T21:43:38.076Z,2.45
2022-08-17T21:47:43.600Z,2.65
2022-08-17T21:51:50.984Z,2.65
2022-08-17T21:55:54.479Z,2.80
2022-08-17T22:00:00.900Z,2.78
2022-08-17T22:04:17.770Z,2.80
2022-08-17T22:08:27.337Z,2.72
2022-08-17T22:12:30.623Z,3.35
2022-08-17T22:16:33.956Z,3.03
2022-08-17T22:20:37.276Z,3.22
2022-08-17T22:24:42.113Z,2.90
2022-08-17T22:28:48.965Z,3.20
2022-08-17T22:32:52.661Z,3.15
2022-08-17T22:37:27.870Z,3.50
2022-08-17T22:41:39.115Z,3.13
2022-08-17T22:45:53.705Z,3.20
2022-08-17T22:49:59.323Z,3.40
2022-08-17T22:54:22.168Z,3.60
2022-08-17T22:58:44.002Z,3.70
2022-08-17T23:03:22.281Z,3.60
2022-08-17T23:07:25.690Z,3.47
2022-08-17T23:11:45.823Z,3.50
2022-08-17T23:15:54.651Z,4.13
2022-08-17T23:19:57.899Z,4.05
2022-08-17T23:24:01.202Z,3.78
2022-08-17T23:28:07.260Z,3.13
2022-08-17T23:32:14.817Z,3.85
2022-08-17T23:36:17.941Z,3.83
2022-08-17T23:40:21.065Z,3.10
2022-08-17T23:44:24.570Z,3.30
2022-08-17T23:48:36.715Z,3.28
2022-08-17T23:52:41.568Z,3.10
2022-08-17T23:56:46.690Z,2.65
